sensor_id;sensor_type;location;lat;lon;timestamp;pressure;altitude;pressure_sealevel;temperature;humidity
12624;BME280;6377;42.836;23.998;2023-05-02T00:01:23;96006.97;;;14.31;95.71
12624;BME280;6377;42.836;23.998;2023-05-02T00:03:52;96022.56;;;14.34;95.63
12624;BME280;6377;42.836;23.998;2023-05-02T00:06:19;96011.47;;;14.31;94.40
12624;BME280;6377;42.836;23.998;2023-05-02T00:08:47;96017.44;;;14.33;94.57
12624;BME280;6377;42.836;23.998;2023-05-02T00:11:15;96008.88;;;14.37;94.96
12624;BME280;6377;42.836;23.998;2023-05-02T00:13:42;96000.13;;;14.22;94.40
12624;BME280;6377;42.836;23.998;2023-05-02T00:16:09;96018.91;;;14.35;92.75
12624;BME280;6377;42.836;23.998;2023-05-02T00:18:37;96009.06;;;14.36;93.72
12624;BME280;6377;42.836;23.998;2023-05-02T00:21:05;96020.34;;;14.38;93.23
12624;BME280;6377;42.836;23.998;2023-05-02T00:23:33;95991.56;;;14.27;92.52
12624;BME280;6377;42.836;23.998;2023-05-02T00:26:00;96022.44;;;14.42;93.39
12624;BME280;6377;42.836;23.998;2023-05-02T00:28:27;96016.66;;;14.39;94.93
12624;BME280;6377;42.836;23.998;2023-05-02T00:30:55;96017.25;;;14.34;94.90
12624;BME280;6377;42.836;23.998;2023-05-02T00:33:22;95985.31;;;14.13;92.81
12624;BME280;6377;42.836;23.998;2023-05-02T00:35:49;96011.47;;;14.31;88.76
12624;BME280;6377;42.836;23.998;2023-05-02T00:38:18;96020.81;;;14.27;93.03
12624;BME280;6377;42.836;23.998;2023-05-02T00:40:46;96024.31;;;14.27;90.65
12624;BME280;6377;42.836;23.998;2023-05-02T00:43:14;96009.19;;;14.07;95.76
12624;BME280;6377;42.836;23.998;2023-05-02T00:45:42;96027.25;;;14.11;96.11
12624;BME280;6377;42.836;23.998;2023-05-02T00:48:11;96039.03;;;14.02;94.87
12624;BME280;6377;42.836;23.998;2023-05-02T00:50:40;96026.69;;;13.94;92.75
12624;BME280;6377;42.836;23.998;2023-05-02T00:53:08;96013.44;;;14.01;95.07
12624;BME280;6377;42.836;23.998;2023-05-02T00:55:37;96025.38;;;14.05;95.60
12624;BME280;6377;42.836;23.998;2023-05-02T00:58:06;96016.25;;;13.93;97.59
12624;BME280;6377;42.836;23.998;2023-05-02T01:00:45;96026.25;;;13.91;99.42
12624;BME280;6377;42.836;23.998;2023-05-02T01:03:24;96006.44;;;13.72;100.00
12624;BME280;6377;42.836;23.998;2023-05-02T01:06:05;96027.63;;;13.87;100.00
12624;BME280;6377;42.836;23.998;2023-05-02T01:08:47;96024.03;;;13.73;100.00
12624;BME280;6377;42.836;23.998;2023-05-02T01:11:25;96025.50;;;13.76;99.11
12624;BME280;6377;42.836;23.998;2023-05-02T01:13:57;96024.28;;;13.78;100.00
12624;BME280;6377;42.836;23.998;2023-05-02T01:16:25;96022.47;;;13.79;100.00
12624;BME280;6377;42.836;23.998;2023-05-02T01:18:55;96018.91;;;13.72;100.00
12624;BME280;6377;42.836;23.998;2023-05-02T01:21:24;96028.53;;;13.73;100.00
12624;BME280;6377;42.836;23.998;2023-05-02T01:24:01;96017.53;;;13.76;100.00
12624;BME280;6377;42.836;23.998;2023-05-02T01:26:35;96030.16;;;13.74;100.00
12624;BME280;6377;42.836;23.998;2023-05-02T01:29:08;96021.44;;;13.59;100.00
12624;BME280;6377;42.836;23.998;2023-05-02T01:31:37;96027.03;;;13.49;100.00
12624;BME280;6377;42.836;23.998;2023-05-02T01:34:08;96023.94;;;13.45;100.00
12624;BME280;6377;42.836;23.998;2023-05-02T01:36:37;96027.28;;;13.54;100.00
12624;BME280;6377;42.836;23.998;2023-05-02T01:39:08;96023.19;;;13.52;100.00
12624;BME280;6377;42.836;23.998;2023-05-02T01:41:37;96018.44;;;13.47;100.00
12624;BME280;6377;42.836;23.998;2023-05-02T01:44:07;96032.28;;;13.42;100.00
12624;BME280;6377;42.836;23.998;2023-05-02T01:46:38;96028.09;;;13.33;100.00
12624;BME280;6377;42.836;23.998;2023-05-02T01:49:06;96041.56;;;13.32;100.00
12624;BME280;6377;42.836;23.998;2023-05-02T01:51:42;96024.53;;;13.26;100.00
12624;BME280;6377;42.836;23.998;2023-05-02T01:54:11;96013.63;;;13.07;100.00
12624;BME280;6377;42.836;23.998;2023-05-02T01:56:39;96020.13;;;13.19;100.00
12624;BME280;6377;42.836;23.998;2023-05-02T01:59:10;96032.41;;;13.20;100.00
12624;BME280;6377;42.836;23.998;2023-05-02T02:01:39;96032.78;;;13.17;100.00
12624;BME280;6377;42.836;23.998;2023-05-02T02:04:08;96032.78;;;13.17;100.00
12624;BME280;6377;42.836;23.998;2023-05-02T02:06:38;96031.97;;;13.16;100.00
12624;BME280;6377;42.836;23.998;2023-05-02T02:09:05;96031.03;;;13.09;100.00
12624;BME280;6377;42.836;23.998;2023-05-02T02:11:36;96029.03;;;12.97;100.00
12624;BME280;6377;42.836;23.998;2023-05-02T02:14:16;96026.84;;;13.00;100.00
12624;BME280;6377;42.836;23.998;2023-05-02T02:16:44;96035.34;;;12.96;100.00
12624;BME280;6377;42.836;23.998;2023-05-02T02:19:13;96017.22;;;12.84;100.00
12624;BME280;6377;42.836;23.998;2023-05-02T02:21:42;96025.91;;;12.93;100.00
12624;BME280;6377;42.836;23.998;2023-05-02T02:24:09;96006.41;;;12.86;100.00
12624;BME280;6377;42.836;23.998;2023-05-02T02:26:37;96037.38;;;13.08;100.00
12624;BME280;6377;42.836;23.998;2023-05-02T02:29:05;96022.63;;;13.06;100.00
12624;BME280;6377;42.836;23.998;2023-05-02T02:31:34;96011.28;;;13.12;100.00
12624;BME280;6377;42.836;23.998;2023-05-02T02:34:03;96022.63;;;13.20;100.00
12624;BME280;6377;42.836;23.998;2023-05-02T02:36:34;96028.31;;;13.17;100.00
12624;BME280;6377;42.836;23.998;2023-05-02T02:39:15;96017.03;;;13.15;100.00
12624;BME280;6377;42.836;23.998;2023-05-02T02:41:52;96018.78;;;13.08;100.00
12624;BME280;6377;42.836;23.998;2023-05-02T02:44:30;96023.53;;;12.83;100.00
12624;BME280;6377;42.836;23.998;2023-05-02T02:47:05;96019.03;;;12.69;100.00
12624;BME280;6377;42.836;23.998;2023-05-02T02:49:43;95993.69;;;12.38;100.00
12624;BME280;6377;42.836;23.998;2023-05-02T02:52:19;96022.03;;;12.37;100.00
12624;BME280;6377;42.836;23.998;2023-05-02T02:54:51;96010.78;;;12.20;100.00
12624;BME280;6377;42.836;23.998;2023-05-02T02:57:25;96006.53;;;12.11;100.00
12624;BME280;6377;42.836;23.998;2023-05-02T03:00:00;96007.41;;;12.04;100.00
12624;BME280;6377;42.836;23.998;2023-05-02T03:02:32;96014.63;;;11.72;100.00
12624;BME280;6377;42.836;23.998;2023-05-02T03:05:01;96013.16;;;11.70;100.00
12624;BME280;6377;42.836;23.998;2023-05-02T03:07:29;96017.25;;;11.50;100.00
12624;BME280;6377;42.836;23.998;2023-05-02T03:09:57;96010.00;;;11.44;100.00
12624;BME280;6377;42.836;23.998;2023-05-02T03:12:24;96015.25;;;11.52;100.00
12624;BME280;6377;42.836;23.998;2023-05-02T03:14:51;96017.41;;;11.48;100.00
12624;BME280;6377;42.836;23.998;2023-05-02T03:17:21;96015.88;;;11.31;100.00
12624;BME280;6377;42.836;23.998;2023-05-02T03:19:50;96014.59;;;11.19;100.00
12624;BME280;6377;42.836;23.998;2023-05-02T03:22:17;96009.66;;;11.16;100.00
12624;BME280;6377;42.836;23.998;2023-05-02T03:24:44;96025.59;;;11.08;100.00
12624;BME280;6377;42.836;23.998;2023-05-02T03:27:11;96020.28;;;11.08;100.00
12624;BME280;6377;42.836;23.998;2023-05-02T03:29:38;96027.09;;;11.02;100.00
12624;BME280;6377;42.836;23.998;2023-05-02T03:32:05;96030.88;;;11.08;100.00
12624;BME280;6377;42.836;23.998;2023-05-02T03:34:32;96029.22;;;11.15;100.00
12624;BME280;6377;42.836;23.998;2023-05-02T03:37:00;96025.34;;;11.25;100.00
12624;BME280;6377;42.836;23.998;2023-05-02T03:39:27;96031.84;;;11.46;100.00
12624;BME280;6377;42.836;23.998;2023-05-02T03:41:55;96029.38;;;11.67;100.00
12624;BME280;6377;42.836;23.998;2023-05-02T03:44:22;96041.84;;;11.89;100.00
12624;BME280;6377;42.836;23.998;2023-05-02T03:46:49;96032.88;;;12.13;100.00
12624;BME280;6377;42.836;23.998;2023-05-02T03:49:16;96039.22;;;12.26;100.00
12624;BME280;6377;42.836;23.998;2023-05-02T03:51:44;96041.38;;;12.08;100.00
12624;BME280;6377;42.836;23.998;2023-05-02T03:54:12;96051.03;;;12.01;100.00
12624;BME280;6377;42.836;23.998;2023-05-02T03:56:40;96041.84;;;11.89;100.00
12624;BME280;6377;42.836;23.998;2023-05-02T03:59:09;96043.28;;;11.69;100.00
12624;BME280;6377;42.836;23.998;2023-05-02T04:01:36;96035.22;;;11.62;100.00
12624;BME280;6377;42.836;23.998;2023-05-02T04:04:04;96041.22;;;11.56;100.00
12624;BME280;6377;42.836;23.998;2023-05-02T04:06:31;96051.34;;;11.53;100.00
12624;BME280;6377;42.836;23.998;2023-05-02T04:08:58;96050.50;;;11.52;100.00
12624;BME280;6377;42.836;23.998;2023-05-02T04:11:27;96046.03;;;11.53;100.00
12624;BME280;6377;42.836;23.998;2023-05-02T04:13:54;96056.09;;;11.57;100.00
12624;BME280;6377;42.836;23.998;2023-05-02T04:16:21;96045.22;;;11.52;100.00
12624;BME280;6377;42.836;23.998;2023-05-02T04:18:48;96054.81;;;11.53;100.00
12624;BME280;6377;42.836;23.998;2023-05-02T04:21:15;96064.97;;;11.95;100.00
12624;BME280;6377;42.836;23.998;2023-05-02T04:23:42;96052.13;;;12.29;100.00
12624;BME280;6377;42.836;23.998;2023-05-02T04:26:09;96045.03;;;12.59;100.00
12624;BME280;6377;42.836;23.998;2023-05-02T04:28:38;96060.22;;;12.80;100.00
12624;BME280;6377;42.836;23.998;2023-05-02T04:31:05;96056.56;;;12.96;100.00
12624;BME280;6377;42.836;23.998;2023-05-02T04:33:34;96032.69;;;12.96;100.00
12624;BME280;6377;42.836;23.998;2023-05-02T04:36:01;96033.31;;;13.12;100.00
12624;BME280;6377;42.836;23.998;2023-05-02T04:38:28;96038.44;;;13.28;97.72
12624;BME280;6377;42.836;23.998;2023-05-02T04:40:55;96057.19;;;13.56;99.22
12624;BME280;6377;42.836;23.998;2023-05-02T04:43:23;96057.91;;;13.65;93.13
12624;BME280;6377;42.836;23.998;2023-05-02T04:45:52;96048.75;;;13.74;91.65
12624;BME280;6377;42.836;23.998;2023-05-02T04:48:19;96057.09;;;13.85;91.67
12624;BME280;6377;42.836;23.998;2023-05-02T04:50:46;96054.69;;;13.90;89.99
12624;BME280;6377;42.836;23.998;2023-05-02T04:53:13;96030.50;;;13.85;86.14
12624;BME280;6377;42.836;23.998;2023-05-02T04:55:41;96043.78;;;14.07;86.11
12624;BME280;6377;42.836;23.998;2023-05-02T04:58:08;96062.16;;;14.23;80.33
12624;BME280;6377;42.836;23.998;2023-05-02T05:00:35;96061.56;;;14.27;79.93
12624;BME280;6377;42.836;23.998;2023-05-02T05:03:04;96062.50;;;14.34;80.22
12624;BME280;6377;42.836;23.998;2023-05-02T05:05:32;96063.56;;;14.40;79.85
12624;BME280;6377;42.836;23.998;2023-05-02T05:07:59;96060.81;;;14.54;70.02
12624;BME280;6377;42.836;23.998;2023-05-02T05:10:26;96066.56;;;14.58;73.57
12624;BME280;6377;42.836;23.998;2023-05-02T05:12:53;96067.25;;;14.67;72.68
12624;BME280;6377;42.836;23.998;2023-05-02T05:15:20;96072.66;;;14.80;70.93
12624;BME280;6377;42.836;23.998;2023-05-02T05:17:50;96075.38;;;14.86;70.73
12624;BME280;6377;42.836;23.998;2023-05-02T05:20:19;96073.69;;;14.79;67.63
12624;BME280;6377;42.836;23.998;2023-05-02T05:22:46;96077.31;;;14.99;66.76
12624;BME280;6377;42.836;23.998;2023-05-02T05:25:13;96071.63;;;15.15;62.17
12624;BME280;6377;42.836;23.998;2023-05-02T05:27:40;96076.53;;;15.05;63.53
12624;BME280;6377;42.836;23.998;2023-05-02T05:30:08;96086.78;;;15.08;62.14
12624;BME280;6377;42.836;23.998;2023-05-02T05:32:36;96082.66;;;15.05;61.57
12624;BME280;6377;42.836;23.998;2023-05-02T05:35:04;96082.28;;;15.15;58.33
12624;BME280;6377;42.836;23.998;2023-05-02T05:37:33;96090.13;;;15.17;55.84
12624;BME280;6377;42.836;23.998;2023-05-02T05:40:02;96088.72;;;15.27;55.73
12624;BME280;6377;42.836;23.998;2023-05-02T05:42:29;96094.44;;;15.52;56.02
12624;BME280;6377;42.836;23.998;2023-05-02T05:44:56;96076.78;;;15.51;56.59
12624;BME280;6377;42.836;23.998;2023-05-02T05:47:23;96108.22;;;15.68;53.79
12624;BME280;6377;42.836;23.998;2023-05-02T05:49:52;96106.16;;;15.70;53.08
12624;BME280;6377;42.836;23.998;2023-05-02T05:52:19;96104.19;;;15.79;51.95
12624;BME280;6377;42.836;23.998;2023-05-02T05:54:48;96091.28;;;15.89;50.67
12624;BME280;6377;42.836;23.998;2023-05-02T05:57:15;96101.75;;;15.91;51.17
12624;BME280;6377;42.836;23.998;2023-05-02T05:59:42;96089.06;;;15.99;49.99
12624;BME280;6377;42.836;23.998;2023-05-02T06:02:09;96109.19;;;16.15;50.17
12624;BME280;6377;42.836;23.998;2023-05-02T06:04:37;96102.22;;;16.20;49.09
12624;BME280;6377;42.836;23.998;2023-05-02T06:07:04;96099.53;;;16.20;48.01
12624;BME280;6377;42.836;23.998;2023-05-02T06:09:31;96098.72;;;16.26;48.18
12624;BME280;6377;42.836;23.998;2023-05-02T06:12:00;96096.91;;;16.34;49.30
12624;BME280;6377;42.836;23.998;2023-05-02T06:14:27;96084.41;;;16.41;46.21
12624;BME280;6377;42.836;23.998;2023-05-02T06:16:58;96105.75;;;16.41;48.16
12624;BME280;6377;42.836;23.998;2023-05-02T06:19:25;96096.53;;;16.43;48.04
12624;BME280;6377;42.836;23.998;2023-05-02T06:21:52;96090.94;;;16.38;47.27
12624;BME280;6377;42.836;23.998;2023-05-02T06:24:19;96100.66;;;16.59;45.65
12624;BME280;6377;42.836;23.998;2023-05-02T06:26:46;96096.16;;;16.72;46.24
12624;BME280;6377;42.836;23.998;2023-05-02T06:29:15;96084.19;;;16.49;45.83
12624;BME280;6377;42.836;23.998;2023-05-02T06:31:42;96071.25;;;16.46;46.04
12624;BME280;6377;42.836;23.998;2023-05-02T06:34:09;96119.50;;;16.44;47.00
12624;BME280;6377;42.836;23.998;2023-05-02T06:36:37;96085.44;;;16.46;45.48
12624;BME280;6377;42.836;23.998;2023-05-02T06:39:04;96082.13;;;16.44;45.86
12624;BME280;6377;42.836;23.998;2023-05-02T06:41:31;96089.78;;;16.67;47.11
12624;BME280;6377;42.836;23.998;2023-05-02T06:43:58;96101.28;;;16.74;44.61
12624;BME280;6377;42.836;23.998;2023-05-02T06:46:29;96095.72;;;16.69;45.08
12624;BME280;6377;42.836;23.998;2023-05-02T06:48:56;96092.44;;;16.73;44.53
12624;BME280;6377;42.836;23.998;2023-05-02T06:51:23;96087.69;;;16.95;44.35
12624;BME280;6377;42.836;23.998;2023-05-02T06:53:50;96093.03;;;17.02;45.51
12624;BME280;6377;42.836;23.998;2023-05-02T06:56:18;96090.38;;;16.95;44.26
12624;BME280;6377;42.836;23.998;2023-05-02T06:58:45;96080.69;;;16.94;43.54
12624;BME280;6377;42.836;23.998;2023-05-02T07:01:12;96100.03;;;16.83;45.21
12624;BME280;6377;42.836;23.998;2023-05-02T07:03:41;96088.75;;;16.88;44.15
12624;BME280;6377;42.836;23.998;2023-05-02T07:06:13;96091.81;;;16.91;43.86
12624;BME280;6377;42.836;23.998;2023-05-02T07:08:40;96095.06;;;17.13;44.05
12624;BME280;6377;42.836;23.998;2023-05-02T07:11:07;96095.66;;;17.28;42.69
12624;BME280;6377;42.836;23.998;2023-05-02T07:13:34;96080.88;;;17.25;43.62
12624;BME280;6377;42.836;23.998;2023-05-02T07:16:01;96100.13;;;17.47;42.90
12624;BME280;6377;42.836;23.998;2023-05-02T07:18:29;96085.31;;;17.51;41.04
12624;BME280;6377;42.836;23.998;2023-05-02T07:20:57;96091.69;;;17.63;42.35
12624;BME280;6377;42.836;23.998;2023-05-02T07:23:26;96094.16;;;17.58;41.80
12624;BME280;6377;42.836;23.998;2023-05-02T07:25:53;96115.31;;;17.66;41.57
12624;BME280;6377;42.836;23.998;2023-05-02T07:28:20;96091.38;;;17.84;41.81
12624;BME280;6377;42.836;23.998;2023-05-02T07:30:47;96089.63;;;18.03;40.07
12624;BME280;6377;42.836;23.998;2023-05-02T07:33:14;96060.13;;;17.78;40.25
12624;BME280;6377;42.836;23.998;2023-05-02T07:35:42;96088.94;;;18.14;38.79
12624;BME280;6377;42.836;23.998;2023-05-02T07:38:10;96080.75;;;18.03;38.75
12624;BME280;6377;42.836;23.998;2023-05-02T07:40:37;96086.34;;;18.01;39.48
12624;BME280;6377;42.836;23.998;2023-05-02T07:43:04;96095.47;;;18.25;39.47
12624;BME280;6377;42.836;23.998;2023-05-02T07:45:32;96096.25;;;18.32;38.62
12624;BME280;6377;42.836;23.998;2023-05-02T07:48:00;96072.06;;;18.14;38.15
12624;BME280;6377;42.836;23.998;2023-05-02T07:50:27;96067.06;;;18.24;38.89
12624;BME280;6377;42.836;23.998;2023-05-02T07:52:54;96085.09;;;18.35;38.89
12624;BME280;6377;42.836;23.998;2023-05-02T07:55:23;96087.84;;;18.60;39.20
12624;BME280;6377;42.836;23.998;2023-05-02T07:57:52;96080.84;;;18.59;37.71
12624;BME280;6377;42.836;23.998;2023-05-02T08:00:19;96085.56;;;18.63;38.06
12624;BME280;6377;42.836;23.998;2023-05-02T08:02:46;96082.50;;;18.84;37.56
12624;BME280;6377;42.836;23.998;2023-05-02T08:05:14;96083.25;;;18.91;37.15
12624;BME280;6377;42.836;23.998;2023-05-02T08:07:41;96084.50;;;19.14;36.76
12624;BME280;6377;42.836;23.998;2023-05-02T08:10:09;96098.78;;;19.26;37.87
12624;BME280;6377;42.836;23.998;2023-05-02T08:12:41;96089.94;;;19.25;36.04
12624;BME280;6377;42.836;23.998;2023-05-02T08:15:11;96086.13;;;19.33;37.33
12624;BME280;6377;42.836;23.998;2023-05-02T08:17:38;96069.13;;;19.02;35.69
12624;BME280;6377;42.836;23.998;2023-05-02T08:20:07;96091.31;;;19.10;35.72
12624;BME280;6377;42.836;23.998;2023-05-02T08:22:34;96094.94;;;19.22;36.36
12624;BME280;6377;42.836;23.998;2023-05-02T08:25:01;96094.34;;;19.38;37.09
12624;BME280;6377;42.836;23.998;2023-05-02T08:27:28;96094.44;;;19.49;35.02
12624;BME280;6377;42.836;23.998;2023-05-02T08:29:57;96079.56;;;19.53;34.80
12624;BME280;6377;42.836;23.998;2023-05-02T08:32:24;96032.22;;;19.41;35.88
12624;BME280;6377;42.836;23.998;2023-05-02T08:34:53;96088.09;;;19.80;34.74
12624;BME280;6377;42.836;23.998;2023-05-02T08:37:21;96086.63;;;19.66;35.28
12624;BME280;6377;42.836;23.998;2023-05-02T08:39:48;96079.56;;;19.53;36.06
12624;BME280;6377;42.836;23.998;2023-05-02T08:42:15;96089.06;;;19.86;35.29
12624;BME280;6377;42.836;23.998;2023-05-02T08:44:42;95956.00;;;19.30;35.44
12624;BME280;6377;42.836;23.998;2023-05-02T08:47:12;96086.59;;;20.32;34.36
12624;BME280;6377;42.836;23.998;2023-05-02T08:49:41;96078.41;;;20.27;34.28
12624;BME280;6377;42.836;23.998;2023-05-02T08:52:08;96088.41;;;20.50;34.39
12624;BME280;6377;42.836;23.998;2023-05-02T08:54:37;96078.38;;;20.57;34.19
12624;BME280;6377;42.836;23.998;2023-05-02T08:57:05;96077.63;;;20.38;32.88
12624;BME280;6377;42.836;23.998;2023-05-02T08:59:32;96071.19;;;20.28;32.50
12624;BME280;6377;42.836;23.998;2023-05-02T09:02:06;96087.25;;;20.46;33.46
12624;BME280;6377;42.836;23.998;2023-05-02T09:04:40;96076.38;;;20.52;32.90
12624;BME280;6377;42.836;23.998;2023-05-02T09:07:09;96085.47;;;20.40;32.78
12624;BME280;6377;42.836;23.998;2023-05-02T09:09:36;96080.63;;;20.60;33.00
12624;BME280;6377;42.836;23.998;2023-05-02T09:12:03;96071.84;;;20.76;34.71
12624;BME280;6377;42.836;23.998;2023-05-02T09:14:31;96073.25;;;20.79;33.00
12624;BME280;6377;42.836;23.998;2023-05-02T09:16:58;96074.81;;;20.98;32.41
12624;BME280;6377;42.836;23.998;2023-05-02T09:19:26;96066.03;;;20.91;31.84
12624;BME280;6377;42.836;23.998;2023-05-02T09:22:00;96059.97;;;20.95;32.28
12624;BME280;6377;42.836;23.998;2023-05-02T09:24:27;96074.59;;;21.22;32.13
12624;BME280;6377;42.836;23.998;2023-05-02T09:26:59;96082.34;;;21.19;31.77
12624;BME280;6377;42.836;23.998;2023-05-02T09:29:27;96084.03;;;21.02;30.66
12624;BME280;6377;42.836;23.998;2023-05-02T09:32:00;96088.88;;;20.47;30.55
12624;BME280;6377;42.836;23.998;2023-05-02T09:34:27;96092.88;;;20.56;31.59
12624;BME280;6377;42.836;23.998;2023-05-02T09:36:55;96063.63;;;20.36;31.23
12624;BME280;6377;42.836;23.998;2023-05-02T09:39:25;96090.63;;;20.53;30.30
12624;BME280;6377;42.836;23.998;2023-05-02T09:41:54;96079.75;;;20.48;30.60
12624;BME280;6377;42.836;23.998;2023-05-02T09:44:22;96087.16;;;20.64;30.67
12624;BME280;6377;42.836;23.998;2023-05-02T09:46:51;96061.72;;;20.78;30.80
12624;BME280;6377;42.836;23.998;2023-05-02T09:49:26;96072.28;;;21.14;29.56
12624;BME280;6377;42.836;23.998;2023-05-02T09:52:09;96078.09;;;21.23;29.99
12624;BME280;6377;42.836;23.998;2023-05-02T09:54:38;96068.88;;;21.19;30.57
12624;BME280;6377;42.836;23.998;2023-05-02T09:57:05;96058.91;;;21.54;28.82
12624;BME280;6377;42.836;23.998;2023-05-02T09:59:32;95993.88;;;21.22;29.03
12624;BME280;6377;42.836;23.998;2023-05-02T10:02:01;96017.44;;;21.55;28.83
12624;BME280;6377;42.836;23.998;2023-05-02T10:04:30;96068.41;;;22.25;29.38
12624;BME280;6377;42.836;23.998;2023-05-02T10:06:58;96064.44;;;22.44;27.96
12624;BME280;6377;42.836;23.998;2023-05-02T10:09:26;96040.13;;;22.56;28.32
12624;BME280;6377;42.836;23.998;2023-05-02T10:11:55;96047.66;;;22.70;27.68
12624;BME280;6377;42.836;23.998;2023-05-02T10:14:23;96000.91;;;22.48;27.65
12624;BME280;6377;42.836;23.998;2023-05-02T10:16:59;96016.91;;;22.55;26.64
12624;BME280;6377;42.836;23.998;2023-05-02T10:19:30;96042.19;;;22.65;27.20
12624;BME280;6377;42.836;23.998;2023-05-02T10:22:02;96051.22;;;22.43;28.05
12624;BME280;6377;42.836;23.998;2023-05-02T10:24:31;96040.53;;;22.81;28.76
12624;BME280;6377;42.836;23.998;2023-05-02T10:27:00;96041.19;;;23.05;27.50
12624;BME280;6377;42.836;23.998;2023-05-02T10:29:28;96028.91;;;22.64;26.98
12624;BME280;6377;42.836;23.998;2023-05-02T10:31:56;96035.88;;;23.10;27.50
12624;BME280;6377;42.836;23.998;2023-05-02T10:34:23;96027.13;;;23.03;27.51
12624;BME280;6377;42.836;23.998;2023-05-02T10:36:51;96031.50;;;23.25;27.54
12624;BME280;6377;42.836;23.998;2023-05-02T10:39:19;96023.88;;;23.01;27.33
12624;BME280;6377;42.836;23.998;2023-05-02T10:41:52;96001.19;;;22.80;27.69
12624;BME280;6377;42.836;23.998;2023-05-02T10:44:31;96020.97;;;23.24;27.25
12624;BME280;6377;42.836;23.998;2023-05-02T10:46:58;96020.50;;;23.49;26.54
12624;BME280;6377;42.836;23.998;2023-05-02T10:49:27;96024.63;;;23.51;26.84
12624;BME280;6377;42.836;23.998;2023-05-02T10:51:54;96014.41;;;23.36;26.77
12624;BME280;6377;42.836;23.998;2023-05-02T10:54:22;96007.56;;;23.72;26.25
12624;BME280;6377;42.836;23.998;2023-05-02T10:57:03;96007.06;;;23.97;25.74
12624;BME280;6377;42.836;23.998;2023-05-02T10:59:35;96005.03;;;24.09;26.82
12624;BME280;6377;42.836;23.998;2023-05-02T11:02:03;96009.56;;;24.04;26.08
12624;BME280;6377;42.836;23.998;2023-05-02T11:04:59;96025.19;;;23.53;25.46
12624;BME280;6377;42.836;23.998;2023-05-02T11:07:27;95980.47;;;23.40;25.99
12624;BME280;6377;42.836;23.998;2023-05-02T11:10:23;96008.97;;;24.23;25.03
12624;BME280;6377;42.836;23.998;2023-05-02T11:12:51;96005.31;;;24.66;25.19
12624;BME280;6377;42.836;23.998;2023-05-02T11:18:17;96004.66;;;25.28;24.09
12624;BME280;6377;42.836;23.998;2023-05-02T11:20:44;96004.44;;;24.92;24.64
12624;BME280;6377;42.836;23.998;2023-05-02T11:23:22;95965.97;;;23.95;25.34
12624;BME280;6377;42.836;23.998;2023-05-02T11:25:53;95999.69;;;24.41;25.11
12624;BME280;6377;42.836;23.998;2023-05-02T11:28:43;95989.34;;;24.65;25.41
12624;BME280;6377;42.836;23.998;2023-05-02T11:34:39;95979.66;;;25.11;25.32
12624;BME280;6377;42.836;23.998;2023-05-02T11:37:13;95974.06;;;25.22;24.87
12624;BME280;6377;42.836;23.998;2023-05-02T11:39:41;95972.41;;;25.73;24.82
12624;BME280;6377;42.836;23.998;2023-05-02T11:42:29;95974.72;;;26.22;25.13
12624;BME280;6377;42.836;23.998;2023-05-02T11:44:57;95951.97;;;26.53;24.54
12624;BME280;6377;42.836;23.998;2023-05-02T11:47:26;95959.84;;;26.29;23.82
12624;BME280;6377;42.836;23.998;2023-05-02T11:49:56;95964.06;;;25.85;24.29
12624;BME280;6377;42.836;23.998;2023-05-02T11:52:24;95963.53;;;25.88;24.71
12624;BME280;6377;42.836;23.998;2023-05-02T11:54:53;95962.66;;;25.72;24.36
12624;BME280;6377;42.836;23.998;2023-05-02T11:57:21;95960.03;;;26.07;25.14
12624;BME280;6377;42.836;23.998;2023-05-02T11:59:49;95949.81;;;26.35;24.21
12624;BME280;6377;42.836;23.998;2023-05-02T12:02:16;95938.41;;;26.53;24.79
12624;BME280;6377;42.836;23.998;2023-05-02T12:04:44;95925.38;;;26.65;24.40
12624;BME280;6377;42.836;23.998;2023-05-02T12:07:12;95937.59;;;26.17;24.75
12624;BME280;6377;42.836;23.998;2023-05-02T12:09:52;95923.22;;;26.16;25.81
12624;BME280;6377;42.836;23.998;2023-05-02T12:12:20;95923.47;;;26.60;25.02
12624;BME280;6377;42.836;23.998;2023-05-02T12:14:47;95910.88;;;27.25;23.73
12624;BME280;6377;42.836;23.998;2023-05-02T12:17:15;95922.00;;;27.28;23.87
12624;BME280;6377;42.836;23.998;2023-05-02T12:19:43;95889.25;;;26.90;23.96
12624;BME280;6377;42.836;23.998;2023-05-02T12:22:12;95918.84;;;27.06;24.00
12624;BME280;6377;42.836;23.998;2023-05-02T12:24:39;95904.47;;;26.81;23.90
12624;BME280;6377;42.836;23.998;2023-05-02T12:27:11;95906.94;;;26.47;24.26
12624;BME280;6377;42.836;23.998;2023-05-02T12:29:40;95901.47;;;26.01;24.58
12624;BME280;6377;42.836;23.998;2023-05-02T12:32:07;95895.09;;;25.45;24.89
12624;BME280;6377;42.836;23.998;2023-05-02T12:34:35;95910.59;;;25.60;25.08
12624;BME280;6377;42.836;23.998;2023-05-02T12:37:03;95915.91;;;25.30;25.39
12624;BME280;6377;42.836;23.998;2023-05-02T12:39:38;95913.63;;;24.70;26.16
12624;BME280;6377;42.836;23.998;2023-05-02T12:42:09;95901.94;;;24.59;26.57
12624;BME280;6377;42.836;23.998;2023-05-02T12:44:38;95896.78;;;24.58;26.64
12624;BME280;6377;42.836;23.998;2023-05-02T12:47:06;95897.41;;;24.70;27.36
12624;BME280;6377;42.836;23.998;2023-05-02T12:49:47;95898.25;;;24.75;27.06
12624;BME280;6377;42.836;23.998;2023-05-02T12:52:15;95882.34;;;25.36;25.75
12624;BME280;6377;42.836;23.998;2023-05-02T12:54:44;95880.06;;;26.00;25.21
12624;BME280;6377;42.836;23.998;2023-05-02T12:57:21;95856.25;;;26.32;24.59
12624;BME280;6377;42.836;23.998;2023-05-02T12:59:51;95871.91;;;26.76;24.04
12624;BME280;6377;42.836;23.998;2023-05-02T13:02:19;95869.78;;;26.52;25.07
12624;BME280;6377;42.836;23.998;2023-05-02T13:04:48;95877.31;;;25.59;25.41
12624;BME280;6377;42.836;23.998;2023-05-02T13:07:15;95875.75;;;24.28;26.62
12624;BME280;6377;42.836;23.998;2023-05-02T13:09:44;95862.97;;;25.02;25.41
12624;BME280;6377;42.836;23.998;2023-05-02T13:12:11;95874.31;;;25.66;25.73
12624;BME280;6377;42.836;23.998;2023-05-02T13:14:38;95857.28;;;25.76;24.88